sensor_id;sensor_type;location;lat;lon;timestamp;P1;durP1;ratioP1;P2;durP2;ratioP2
22565;SDS011;11449;51.330;19.378;2023-08-20T00:04:30;55.30;;;16.90;;
22565;SDS011;11449;51.330;19.378;2023-08-20T00:09:38;76.00;;;19.00;;
22565;SDS011;11449;51.330;19.378;2023-08-20T00:15:02;73.00;;;18.60;;
22565;SDS011;11449;51.330;19.378;2023-08-20T00:20:19;59.00;;;18.00;;
22565;SDS011;11449;51.330;19.378;2023-08-20T00:25:33;58.80;;;16.70;;
22565;SDS011;11449;51.330;19.378;2023-08-20T00:30:43;60.80;;;18.80;;
22565;SDS011;11449;51.330;19.378;2023-08-20T00:36:05;58.80;;;18.50;;
22565;SDS011;11449;51.330;19.378;2023-08-20T00:41:17;67.90;;;19.50;;
22565;SDS011;11449;51.330;19.378;2023-08-20T00:52:00;57.70;;;17.20;;
22565;SDS011;11449;51.330;19.378;2023-08-20T00:57:20;54.10;;;16.90;;
22565;SDS011;11449;51.330;19.378;2023-08-20T01:02:35;50.40;;;14.90;;
22565;SDS011;11449;51.330;19.378;2023-08-20T01:08:09;73.70;;;17.10;;
22565;SDS011;11449;51.330;19.378;2023-08-20T01:13:21;64.10;;;17.30;;
22565;SDS011;11449;51.330;19.378;2023-08-20T01:18:29;58.90;;;17.10;;
22565;SDS011;11449;51.330;19.378;2023-08-20T01:29:04;62.10;;;18.20;;
22565;SDS011;11449;51.330;19.378;2023-08-20T01:34:19;68.90;;;16.90;;
22565;SDS011;11449;51.330;19.378;2023-08-20T01:39:30;66.70;;;16.00;;
22565;SDS011;11449;51.330;19.378;2023-08-20T01:45:07;51.10;;;14.40;;
22565;SDS011;11449;51.330;19.378;2023-08-20T01:50:18;64.10;;;16.40;;
22565;SDS011;11449;51.330;19.378;2023-08-20T01:55:51;80.70;;;17.40;;
22565;SDS011;11449;51.330;19.378;2023-08-20T02:01:24;62.40;;;16.40;;
22565;SDS011;11449;51.330;19.378;2023-08-20T02:06:40;76.20;;;17.00;;
22565;SDS011;11449;51.330;19.378;2023-08-20T02:11:52;72.20;;;17.40;;
22565;SDS011;11449;51.330;19.378;2023-08-20T02:17:00;59.80;;;16.00;;
22565;SDS011;11449;51.330;19.378;2023-08-20T02:22:28;51.90;;;16.30;;
22565;SDS011;11449;51.330;19.378;2023-08-20T02:27:48;80.40;;;19.40;;
22565;SDS011;11449;51.330;19.378;2023-08-20T02:33:06;63.30;;;16.30;;
22565;SDS011;11449;51.330;19.378;2023-08-20T02:38:17;47.60;;;14.60;;
22565;SDS011;11449;51.330;19.378;2023-08-20T02:43:36;62.50;;;17.10;;
22565;SDS011;11449;51.330;19.378;2023-08-20T02:48:47;66.40;;;17.80;;
22565;SDS011;11449;51.330;19.378;2023-08-20T02:54:09;52.00;;;14.70;;
22565;SDS011;11449;51.330;19.378;2023-08-20T02:59:25;70.60;;;18.00;;
22565;SDS011;11449;51.330;19.378;2023-08-20T03:04:41;109.00;;;20.20;;
22565;SDS011;11449;51.330;19.378;2023-08-20T03:15:18;55.20;;;14.70;;
22565;SDS011;11449;51.330;19.378;2023-08-20T03:20:36;53.30;;;14.10;;
22565;SDS011;11449;51.330;19.378;2023-08-20T03:25:53;64.30;;;14.70;;
22565;SDS011;11449;51.330;19.378;2023-08-20T03:31:24;53.60;;;14.00;;
22565;SDS011;11449;51.330;19.378;2023-08-20T03:36:38;64.30;;;16.10;;
22565;SDS011;11449;51.330;19.378;2023-08-20T03:42:00;68.50;;;16.70;;
22565;SDS011;11449;51.330;19.378;2023-08-20T03:47:43;61.30;;;15.60;;
22565;SDS011;11449;51.330;19.378;2023-08-20T03:53:10;57.80;;;15.20;;
22565;SDS011;11449;51.330;19.378;2023-08-20T03:58:40;65.80;;;16.60;;
22565;SDS011;11449;51.330;19.378;2023-08-20T04:09:31;76.00;;;19.50;;
22565;SDS011;11449;51.330;19.378;2023-08-20T04:14:37;96.90;;;24.20;;
22565;SDS011;11449;51.330;19.378;2023-08-20T04:19:45;81.40;;;22.60;;
22565;SDS011;11449;51.330;19.378;2023-08-20T04:25:02;60.70;;;21.70;;
22565;SDS011;11449;51.330;19.378;2023-08-20T04:30:30;69.10;;;22.70;;
22565;SDS011;11449;51.330;19.378;2023-08-20T04:35:42;88.80;;;24.80;;
22565;SDS011;11449;51.330;19.378;2023-08-20T04:40:49;89.60;;;22.80;;
22565;SDS011;11449;51.330;19.378;2023-08-20T04:45:58;80.20;;;22.70;;
22565;SDS011;11449;51.330;19.378;2023-08-20T04:51:06;56.80;;;19.20;;
22565;SDS011;11449;51.330;19.378;2023-08-20T04:56:23;84.80;;;23.10;;
22565;SDS011;11449;51.330;19.378;2023-08-20T05:01:38;87.00;;;24.80;;
22565;SDS011;11449;51.330;19.378;2023-08-20T05:07:13;68.00;;;23.50;;
22565;SDS011;11449;51.330;19.378;2023-08-20T05:12:41;75.30;;;23.90;;
22565;SDS011;11449;51.330;19.378;2023-08-20T05:18:02;70.80;;;25.70;;
22565;SDS011;11449;51.330;19.378;2023-08-20T05:23:10;68.40;;;27.60;;
22565;SDS011;11449;51.330;19.378;2023-08-20T05:28:21;81.60;;;27.80;;
22565;SDS011;11449;51.330;19.378;2023-08-20T05:33:30;103.20;;;30.40;;
22565;SDS011;11449;51.330;19.378;2023-08-20T05:38:41;113.50;;;31.60;;
22565;SDS011;11449;51.330;19.378;2023-08-20T05:43:50;99.80;;;30.80;;
22565;SDS011;11449;51.330;19.378;2023-08-20T05:48:58;96.40;;;31.50;;
22565;SDS011;11449;51.330;19.378;2023-08-20T05:54:09;83.00;;;30.20;;
22565;SDS011;11449;51.330;19.378;2023-08-20T05:59:26;61.90;;;24.70;;
22565;SDS011;11449;51.330;19.378;2023-08-20T06:16:01;77.80;;;25.30;;
22565;SDS011;11449;51.330;19.378;2023-08-20T06:21:21;68.70;;;24.60;;
22565;SDS011;11449;51.330;19.378;2023-08-20T06:26:59;236.30;;;37.80;;
22565;SDS011;11449;51.330;19.378;2023-08-20T06:32:12;70.10;;;24.30;;
22565;SDS011;11449;51.330;19.378;2023-08-20T06:37:23;65.80;;;24.50;;
22565;SDS011;11449;51.330;19.378;2023-08-20T06:42:43;35.40;;;21.90;;
22565;SDS011;11449;51.330;19.378;2023-08-20T06:47:59;25.10;;;21.60;;
22565;SDS011;11449;51.330;19.378;2023-08-20T06:58:53;25.00;;;19.70;;
22565;SDS011;11449;51.330;19.378;2023-08-20T07:04:33;21.70;;;18.30;;
22565;SDS011;11449;51.330;19.378;2023-08-20T07:28:52;26.10;;;18.00;;
22565;SDS011;11449;51.330;19.378;2023-08-20T07:40:54;97.80;;;36.30;;
22565;SDS011;11449;51.330;19.378;2023-08-20T07:46:43;75.70;;;23.20;;
22565;SDS011;11449;51.330;19.378;2023-08-20T08:04:43;70.20;;;22.10;;
22565;SDS011;11449;51.330;19.378;2023-08-20T08:10:26;89.80;;;28.30;;
22565;SDS011;11449;51.330;19.378;2023-08-20T08:21:28;220.60;;;177.00;;
22565;SDS011;11449;51.330;19.378;2023-08-20T08:26:48;231.80;;;100.30;;
22565;SDS011;11449;51.330;19.378;2023-08-20T08:44:29;62.20;;;20.80;;
22565;SDS011;11449;51.330;19.378;2023-08-20T08:55:47;133.80;;;46.30;;
22565;SDS011;11449;51.330;19.378;2023-08-20T09:01:28;108.50;;;46.60;;
22565;SDS011;11449;51.330;19.378;2023-08-20T09:24:16;112.70;;;52.70;;
22565;SDS011;11449;51.330;19.378;2023-08-20T09:29:26;78.80;;;28.70;;
22565;SDS011;11449;51.330;19.378;2023-08-20T09:46:16;84.40;;;33.10;;
22565;SDS011;11449;51.330;19.378;2023-08-20T09:51:40;171.00;;;99.40;;
22565;SDS011;11449;51.330;19.378;2023-08-20T10:09:16;106.40;;;29.40;;
22565;SDS011;11449;51.330;19.378;2023-08-20T10:27:09;19.00;;;10.40;;
22565;SDS011;11449;51.330;19.378;2023-08-20T10:32:57;22.90;;;10.90;;
22565;SDS011;11449;51.330;19.378;2023-08-20T10:38:23;20.80;;;9.90;;
22565;SDS011;11449;51.330;19.378;2023-08-20T11:14:11;39.00;;;11.40;;
22565;SDS011;11449;51.330;19.378;2023-08-20T11:19:56;75.00;;;22.00;;
22565;SDS011;11449;51.330;19.378;2023-08-20T11:25:20;843.30;;;775.50;;
22565;SDS011;11449;51.330;19.378;2023-08-20T11:36:52;919.30;;;849.80;;
22565;SDS011;11449;51.330;19.378;2023-08-20T12:00:01;87.60;;;33.60;;
22565;SDS011;11449;51.330;19.378;2023-08-20T12:29:08;198.00;;;145.70;;
22565;SDS011;11449;51.330;19.378;2023-08-20T12:40:05;373.80;;;338.30;;
22565;SDS011;11449;51.330;19.378;2023-08-20T12:45:31;531.70;;;484.50;;
22565;SDS011;11449;51.330;19.378;2023-08-20T12:50:58;924.50;;;853.20;;
22565;SDS011;11449;51.330;19.378;2023-08-20T12:56:32;1093.90;;;999.90;;
22565;SDS011;11449;51.330;19.378;2023-08-20T13:01:52;974.70;;;899.60;;
22565;SDS011;11449;51.330;19.378;2023-08-20T13:07:08;1144.70;;;999.90;;
22565;SDS011;11449;51.330;19.378;2023-08-20T13:13:05;1157.00;;;999.90;;
22565;SDS011;11449;51.330;19.378;2023-08-20T13:18:41;1139.20;;;986.40;;
22565;SDS011;11449;51.330;19.378;2023-08-20T13:29:24;1146.60;;;999.90;;
22565;SDS011;11449;51.330;19.378;2023-08-20T13:40:19;1143.20;;;999.90;;
22565;SDS011;11449;51.330;19.378;2023-08-20T13:45:35;1149.90;;;999.90;;
22565;SDS011;11449;51.330;19.378;2023-08-20T13:51:02;1152.70;;;999.90;;
22565;SDS011;11449;51.330;19.378;2023-08-20T13:56:32;1135.10;;;999.90;;
22565;SDS011;11449;51.330;19.378;2023-08-20T14:01:52;1151.50;;;999.90;;
22565;SDS011;11449;51.330;19.378;2023-08-20T14:07:13;341.60;;;223.20;;
22565;SDS011;11449;51.330;19.378;2023-08-20T14:12:22;459.80;;;341.00;;
22565;SDS011;11449;51.330;19.378;2023-08-20T14:17:45;440.60;;;343.80;;
22565;SDS011;11449;51.330;19.378;2023-08-20T14:23:24;443.50;;;335.40;;
22565;SDS011;11449;51.330;19.378;2023-08-20T14:28:37;322.60;;;214.30;;
22565;SDS011;11449;51.330;19.378;2023-08-20T14:33:54;333.40;;;234.10;;
22565;SDS011;11449;51.330;19.378;2023-08-20T14:39:02;384.10;;;265.30;;
22565;SDS011;11449;51.330;19.378;2023-08-20T14:44:36;423.30;;;271.90;;
22565;SDS011;11449;51.330;19.378;2023-08-20T14:50:15;447.10;;;338.40;;
22565;SDS011;11449;51.330;19.378;2023-08-20T14:55:40;424.20;;;322.70;;
22565;SDS011;11449;51.330;19.378;2023-08-20T15:01:10;426.70;;;321.70;;
22565;SDS011;11449;51.330;19.378;2023-08-20T15:06:41;477.10;;;366.60;;
22565;SDS011;11449;51.330;19.378;2023-08-20T15:12:29;339.70;;;223.50;;
22565;SDS011;11449;51.330;19.378;2023-08-20T15:18:09;213.40;;;118.50;;
22565;SDS011;11449;51.330;19.378;2023-08-20T15:23:43;231.30;;;134.40;;
22565;SDS011;11449;51.330;19.378;2023-08-20T15:29:24;288.80;;;174.60;;
22565;SDS011;11449;51.330;19.378;2023-08-20T15:35:08;310.60;;;146.50;;
22565;SDS011;11449;51.330;19.378;2023-08-20T15:40:54;361.00;;;257.80;;
22565;SDS011;11449;51.330;19.378;2023-08-20T15:46:26;405.90;;;285.20;;
22565;SDS011;11449;51.330;19.378;2023-08-20T15:51:50;487.80;;;390.00;;
22565;SDS011;11449;51.330;19.378;2023-08-20T15:57:45;372.80;;;255.30;;
22565;SDS011;11449;51.330;19.378;2023-08-20T16:03:03;360.70;;;242.10;;
22565;SDS011;11449;51.330;19.378;2023-08-20T16:08:20;469.40;;;424.10;;
22565;SDS011;11449;51.330;19.378;2023-08-20T16:25:27;825.70;;;761.60;;
22565;SDS011;11449;51.330;19.378;2023-08-20T16:36:54;861.40;;;793.80;;
22565;SDS011;11449;51.330;19.378;2023-08-20T16:54:28;1033.50;;;960.20;;
22565;SDS011;11449;51.330;19.378;2023-08-20T17:00:00;1048.10;;;973.10;;
22565;SDS011;11449;51.330;19.378;2023-08-20T17:05:26;976.90;;;906.20;;
22565;SDS011;11449;51.330;19.378;2023-08-20T17:11:25;1084.60;;;999.90;;
22565;SDS011;11449;51.330;19.378;2023-08-20T17:16:52;75.40;;;14.70;;
22565;SDS011;11449;51.330;19.378;2023-08-20T17:58:21;204.20;;;150.20;;
22565;SDS011;11449;51.330;19.378;2023-08-20T18:20:42;118.20;;;44.60;;
22565;SDS011;11449;51.330;19.378;2023-08-20T18:32:13;98.10;;;38.90;;
22565;SDS011;11449;51.330;19.378;2023-08-20T18:43:36;112.60;;;46.60;;
22565;SDS011;11449;51.330;19.378;2023-08-20T18:49:16;143.60;;;60.30;;
22565;SDS011;11449;51.330;19.378;2023-08-20T18:55:06;117.60;;;50.50;;
22565;SDS011;11449;51.330;19.378;2023-08-20T19:00:46;133.80;;;58.20;;
22565;SDS011;11449;51.330;19.378;2023-08-20T19:06:09;140.60;;;71.70;;
22565;SDS011;11449;51.330;19.378;2023-08-20T19:11:26;153.30;;;75.30;;
22565;SDS011;11449;51.330;19.378;2023-08-20T19:17:08;202.80;;;105.50;;
22565;SDS011;11449;51.330;19.378;2023-08-20T19:28:27;229.30;;;142.40;;
22565;SDS011;11449;51.330;19.378;2023-08-20T19:34:00;214.30;;;153.50;;
22565;SDS011;11449;51.330;19.378;2023-08-20T19:39:38;283.00;;;245.10;;
22565;SDS011;11449;51.330;19.378;2023-08-20T19:45:21;190.50;;;152.50;;
22565;SDS011;11449;51.330;19.378;2023-08-20T19:50:45;276.80;;;213.40;;
22565;SDS011;11449;51.330;19.378;2023-08-20T19:56:08;205.70;;;132.80;;
22565;SDS011;11449;51.330;19.378;2023-08-20T20:01:53;221.00;;;142.50;;
22565;SDS011;11449;51.330;19.378;2023-08-20T20:07:53;231.60;;;147.40;;
22565;SDS011;11449;51.330;19.378;2023-08-20T20:13:47;237.20;;;148.80;;
22565;SDS011;11449;51.330;19.378;2023-08-20T20:19:35;198.80;;;113.20;;
22565;SDS011;11449;51.330;19.378;2023-08-20T20:25:06;539.40;;;492.10;;
22565;SDS011;11449;51.330;19.378;2023-08-20T20:30:29;201.70;;;116.40;;
22565;SDS011;11449;51.330;19.378;2023-08-20T20:35:38;210.90;;;127.30;;
22565;SDS011;11449;51.330;19.378;2023-08-20T20:40:46;300.80;;;200.10;;
22565;SDS011;11449;51.330;19.378;2023-08-20T20:46:06;259.50;;;162.90;;
22565;SDS011;11449;51.330;19.378;2023-08-20T20:51:15;259.40;;;166.00;;
22565;SDS011;11449;51.330;19.378;2023-08-20T20:56:41;138.90;;;76.50;;
22565;SDS011;11449;51.330;19.378;2023-08-20T21:01:51;216.60;;;128.10;;
22565;SDS011;11449;51.330;19.378;2023-08-20T21:06:59;213.30;;;124.10;;
22565;SDS011;11449;51.330;19.378;2023-08-20T21:12:10;210.90;;;126.90;;
22565;SDS011;11449;51.330;19.378;2023-08-20T21:17:18;186.00;;;102.80;;
22565;SDS011;11449;51.330;19.378;2023-08-20T21:22:46;213.60;;;122.20;;
22565;SDS011;11449;51.330;19.378;2023-08-20T21:28:18;163.00;;;98.00;;
22565;SDS011;11449;51.330;19.378;2023-08-20T21:33:39;160.40;;;78.00;;
22565;SDS011;11449;51.330;19.378;2023-08-20T21:45:09;345.40;;;208.20;;
22565;SDS011;11449;51.330;19.378;2023-08-20T21:50:52;276.00;;;189.20;;
22565;SDS011;11449;51.330;19.378;2023-08-20T22:01:59;327.60;;;228.40;;
22565;SDS011;11449;51.330;19.378;2023-08-20T22:07:19;316.90;;;224.80;;
22565;SDS011;11449;51.330;19.378;2023-08-20T22:12:47;328.50;;;228.00;;
22565;SDS011;11449;51.330;19.378;2023-08-20T22:18:26;348.40;;;250.60;;
22565;SDS011;11449;51.330;19.378;2023-08-20T22:23:50;350.70;;;245.50;;
22565;SDS011;11449;51.330;19.378;2023-08-20T22:29:17;94.90;;;39.20;;
22565;SDS011;11449;51.330;19.378;2023-08-20T22:46:09;196.10;;;139.40;;
22565;SDS011;11449;51.330;19.378;2023-08-20T22:57:26;231.40;;;169.80;;
22565;SDS011;11449;51.330;19.378;2023-08-20T23:03:02;232.70;;;140.20;;
22565;SDS011;11449;51.330;19.378;2023-08-20T23:08:13;180.10;;;105.70;;
22565;SDS011;11449;51.330;19.378;2023-08-20T23:13:27;82.90;;;31.20;;
22565;SDS011;11449;51.330;19.378;2023-08-20T23:18:37;115.00;;;37.10;;
22565;SDS011;11449;51.330;19.378;2023-08-20T23:23:48;145.40;;;55.20;;
22565;SDS011;11449;51.330;19.378;2023-08-20T23:28:56;148.20;;;89.80;;
22565;SDS011;11449;51.330;19.378;2023-08-20T23:34:14;170.00;;;104.50;;
22565;SDS011;11449;51.330;19.378;2023-08-20T23:39:23;208.50;;;130.40;;
22565;SDS011;11449;51.330;19.378;2023-08-20T23:44:33;297.30;;;197.00;;
22565;SDS011;11449;51.330;19.378;2023-08-20T23:49:42;313.60;;;228.60;;
22565;SDS011;11449;51.330;19.378;2023-08-20T23:54:50;246.70;;;155.10;;
22565;SDS011;11449;51.330;19.378;2023-08-20T23:59:58;206.40;;;128.40;;
